East Aurora, New York
Current Conditions -  °F | °C
As of 10:54 PM on Saturday 22 Nov 2014 (Local Time) from KBUF Reporting Station
Light Rain Light Rain  
Wind Chill: 33°   Ceiling: 3000
Heat Index: 41°   Visibility: 8mi
Dew Point: 37°   Wind: 15mph
Humidity: 86%   Direction: 210°SSW
Pressure: 29.98"   Gusts: NA
Location:  42.77°N, 78.61°W
Report Text: KBUF 230354Z 21013KT 8SM -RA OVC030 05/03 A2998 RMK AO2 SLP157 P0004 T00500028
Loading
Personal Weather Stations






























Interactive Weather Map New forecast layout! Learn more

10-Day Weather Forecast

Advertisements
Track Severe Weather on mobile